Time;durP1;ratioP1;P1;durP2;ratioP2;P2;SDS_P1;SDS_P2;PMS_P1;PMS_P2;Temp;Humidity;BMP_temperature;BMP_pressure;BME280_temperature;BME280_humidity;BME280_pressure;Samples;Min_cycle;Max_cycle;Signal;HPM_P1;HPM_P2
2023/04/24 00:00:35;;;;;;;14.43;12.97;;;;;;;10.26;78.42;92569.09;5112525;28;20220;-76
2023/04/24 00:03:02;;;;;;;14.30;13.07;;;;;;;10.36;77.68;92579.44;5113723;28;20216;-75
2023/04/24 00:05:28;;;;;;;14.90;13.63;;;;;;;10.41;76.69;92568.91;5111726;28;20228;-76
2023/04/24 00:07:55;;;;;;;14.60;13.37;;;;;;;10.57;76.38;92570.31;5113375;28;20203;-76
2023/04/24 00:10:20;;;;;;;13.87;12.67;;;;;;;10.58;76.54;92566.66;5110552;28;20259;-76
2023/04/24 00:12:46;;;;;;;16.03;14.23;;;;;;;10.54;76.35;92560.41;5111722;28;20172;-75
2023/04/24 00:15:11;;;;;;;14.13;12.90;;;;;;;10.16;77.22;92524.84;5112175;28;20231;-75
2023/04/24 00:17:37;;;;;;;14.63;13.27;;;;;;;10.20;77.82;92544.09;5111089;28;20207;-75
2023/04/24 00:20:04;;;;;;;16.17;14.80;;;;;;;9.95;79.55;92539.13;5111327;28;20251;-75
2023/04/24 00:22:30;;;;;;;15.37;13.77;;;;;;;9.94;80.34;92529.75;5110932;28;20910;-75
2023/04/24 00:24:56;;;;;;;17.10;14.03;;;;;;;9.90;80.64;92539.16;5112455;28;20212;-75
2023/04/24 00:27:22;;;;;;;15.30;13.73;;;;;;;9.87;80.27;92534.50;5112556;28;20268;-75
2023/04/24 00:29:48;;;;;;;16.07;14.57;;;;;;;9.69;81.49;92529.97;5112010;28;20241;-75
2023/04/24 00:32:14;;;;;;;13.87;12.63;;;;;;;9.78;81.30;92539.53;5112794;28;20181;-76
2023/04/24 00:34:40;;;;;;;13.57;12.40;;;;;;;9.66;81.39;92527.94;5112850;28;20186;-76
2023/04/24 00:37:06;;;;;;;14.50;13.40;;;;;;;9.75;81.00;92549.72;5113262;28;20193;-76
2023/04/24 00:39:31;;;;;;;14.30;13.00;;;;;;;9.57;81.32;92522.50;5111952;28;20205;-76
2023/04/24 00:41:57;;;;;;;14.40;13.20;;;;;;;9.83;80.85;92549.16;5112634;28;20237;-76
2023/04/24 00:44:23;;;;;;;13.53;12.43;;;;;;;9.36;82.39;92533.38;5111063;28;20222;-76
2023/04/24 00:46:54;;;;;;;15.83;14.37;;;;;;;9.38;82.40;92549.53;5111795;28;20197;-71
2023/04/24 00:49:21;;;;;;;16.93;15.20;;;;;;;9.64;81.56;92559.47;5112483;28;20188;-75
2023/04/24 00:51:46;;;;;;;16.50;14.13;;;;;;;9.45;80.75;92492.66;5111845;28;20304;-74
2023/04/24 00:54:13;;;;;;;15.10;14.00;;;;;;;9.78;80.89;92546.56;5113098;28;20181;-75
2023/04/24 00:56:40;;;;;;;15.87;14.60;;;;;;;9.80;81.99;92547.09;5110902;28;20211;-75
2023/04/24 00:59:06;;;;;;;15.63;14.33;;;;;;;9.81;81.17;92530.38;5111892;28;20256;-75
2023/04/24 01:01:32;;;;;;;17.17;14.10;;;;;;;9.99;80.44;92550.56;5110227;28;20215;-75
2023/04/24 01:03:58;;;;;;;16.63;15.13;;;;;;;9.99;80.36;92547.97;5114511;28;20215;-75
2023/04/24 01:06:27;;;;;;;14.83;13.60;;;;;;;10.13;80.50;92550.72;5112214;28;20228;-75
2023/04/24 01:08:54;;;;;;;16.47;15.17;;;;;;;10.26;80.57;92553.44;5110730;28;20283;-75
2023/04/24 01:11:21;;;;;;;14.87;13.67;;;;;;;10.26;80.86;92550.03;5110917;28;20219;-75
2023/04/24 01:13:47;;;;;;;14.73;13.60;;;;;;;10.13;81.16;92535.84;5111675;28;20182;-75
2023/04/24 01:16:15;;;;;;;15.27;14.00;;;;;;;10.07;81.16;92507.44;5110948;28;20233;-75
2023/04/24 01:18:40;;;;;;;15.47;14.07;;;;;;;10.27;81.38;92536.75;5111823;28;20568;-75
2023/04/24 01:21:08;;;;;;;16.50;15.10;;;;;;;10.18;82.29;92522.72;5110487;28;20217;-74
2023/04/24 01:23:33;;;;;;;15.73;14.13;;;;;;;10.31;84.35;92522.06;5111815;28;20205;-75
2023/04/24 01:25:59;;;;;;;16.20;14.70;;;;;;;10.31;85.62;92519.47;5110474;28;20245;-74
2023/04/24 01:28:25;;;;;;;15.77;14.17;;;;;;;10.07;88.84;92510.06;5112467;28;20238;-76
2023/04/24 01:30:50;;;;;;;16.47;15.03;;;;;;;9.84;92.49;92500.41;5110206;28;20306;-76
2023/04/24 01:33:17;;;;;;;17.70;16.10;;;;;;;9.81;93.65;92483.47;5114090;28;20184;-75
2023/04/24 01:35:42;;;;;;;17.80;16.37;;;;;;;9.87;95.57;92490.16;5112957;28;20212;-75
2023/04/24 01:38:07;;;;;;;17.87;16.07;;;;;;;9.70;94.86;92489.81;5115361;28;20192;-75
2023/04/24 01:40:33;;;;;;;18.90;17.10;;;;;;;9.24;97.78;92502.50;5111044;28;20216;-75
2023/04/24 01:42:59;;;;;;;18.87;17.17;;;;;;;8.83;98.12;92484.81;5110921;28;20180;-75
2023/04/24 01:45:25;;;;;;;18.87;17.37;;;;;;;9.20;96.24;92509.28;5110249;28;20220;-75
2023/04/24 01:47:50;;;;;;;19.83;18.13;;;;;;;9.20;97.30;92505.88;5113053;28;20200;-75
2023/04/24 01:50:16;;;;;;;18.57;16.77;;;;;;;9.36;97.25;92500.28;5110155;28;20223;-74
2023/04/24 01:52:41;;;;;;;18.17;16.43;;;;;;;9.21;98.58;92482.16;5110719;28;20209;-75
2023/04/24 01:55:07;;;;;;;17.40;15.83;;;;;;;9.15;100.00;92500.72;5110082;28;20239;-75
2023/04/24 01:57:33;;;;;;;18.07;16.47;;;;;;;8.86;99.99;92497.28;5111585;28;20180;-74
2023/04/24 01:59:58;;;;;;;18.57;16.67;;;;;;;8.88;100.00;92479.56;5111663;28;20227;-75
2023/04/24 02:02:27;;;;;;;17.70;15.90;;;;;;;8.96;100.00;92479.00;5111085;28;20223;-75
2023/04/24 02:04:53;;;;;;;18.87;17.07;;;;;;;8.89;100.00;92496.72;5112696;28;20231;-77
2023/04/24 02:07:18;;;;;;;18.53;16.93;;;;;;;8.62;100.00;92459.97;5109314;28;20228;-76
2023/04/24 02:09:43;;;;;;;17.13;15.63;;;;;;;8.65;100.00;92464.63;5111675;28;20262;-72
2023/04/24 02:12:09;;;;;;;17.90;16.40;;;;;;;8.78;100.00;92484.84;5110115;28;20195;-73
2023/04/24 02:14:34;;;;;;;19.87;17.80;;;;;;;8.31;100.00;92419.56;5111060;28;20184;-72
2023/04/24 02:17:00;;;;;;;17.77;15.97;;;;;;;8.63;100.00;92483.09;5110386;28;20214;-72
2023/04/24 02:19:26;;;;;;;17.67;16.07;;;;;;;8.41;100.00;92471.50;5110029;28;20187;-71
2023/04/24 02:21:51;;;;;;;17.83;16.33;;;;;;;8.29;100.00;92491.88;5110380;28;20257;-72
2023/04/24 02:24:17;;;;;;;18.17;16.57;;;;;;;8.23;100.00;92482.53;5109919;28;20803;-71
2023/04/24 02:26:42;;;;;;;18.20;16.57;;;;;;;8.53;100.00;92490.19;5110990;28;20227;-71
2023/04/24 02:29:08;;;;;;;17.13;15.63;;;;;;;8.54;100.00;92489.16;5110438;28;20216;-72
2023/04/24 02:31:33;;;;;;;15.20;13.83;;;;;;;8.61;100.00;92487.00;5109111;28;20227;-72
2023/04/24 02:33:59;;;;;;;15.70;14.50;;;;;;;8.53;100.00;92469.38;5110417;28;20192;-72
2023/04/24 02:36:25;;;;;;;17.87;16.37;;;;;;;8.58;100.00;92474.53;5110587;27;20286;-71
2023/04/24 02:38:50;;;;;;;16.23;14.90;;;;;;;8.49;100.00;92473.56;5110736;28;20188;-72
2023/04/24 02:41:16;;;;;;;16.47;14.97;;;;;;;8.53;100.00;92464.19;5109308;28;20253;-72
2023/04/24 02:43:41;;;;;;;17.10;15.80;;;;;;;8.48;100.00;92469.41;5110841;28;20183;-72
2023/04/24 02:46:06;;;;;;;16.03;14.73;;;;;;;8.41;100.00;92463.72;5109238;28;20291;-72
2023/04/24 02:48:32;;;;;;;15.00;13.50;;;;;;;8.60;100.00;92477.66;5110352;28;20203;-71
2023/04/24 02:50:57;;;;;;;17.03;15.63;;;;;;;8.61;100.00;92466.97;5110187;28;20232;-70
2023/04/24 02:53:23;;;;;;;16.30;15.00;;;;;;;8.66;100.00;92466.97;5109895;28;20219;-71
2023/04/24 02:55:48;;;;;;;16.87;15.47;;;;;;;8.56;100.00;92468.84;5109027;28;20228;-71
2023/04/24 02:58:14;;;;;;;15.70;14.50;;;;;;;8.47;100.00;92460.06;5109707;28;20255;-71
2023/04/24 03:00:39;;;;;;;15.40;14.13;;;;;;;8.17;100.00;92417.53;5109598;28;20220;-73
2023/04/24 03:03:05;;;;;;;16.93;15.50;;;;;;;8.40;100.00;92436.16;5109852;28;20244;-75
2023/04/24 03:05:31;;;;;;;15.93;14.73;;;;;;;8.74;100.00;92469.00;5109174;28;20212;-74
2023/04/24 03:07:57;;;;;;;15.17;13.93;;;;;;;8.48;100.00;92456.41;5110170;28;20243;-74
2023/04/24 03:10:22;;;;;;;17.03;15.73;;;;;;;8.37;100.00;92468.69;5109349;28;20257;-73
2023/04/24 03:12:48;;;;;;;15.33;14.10;;;;;;;8.32;100.00;92476.50;5110331;28;20187;-74
2023/04/24 03:15:13;;;;;;;16.87;15.30;;;;;;;8.26;100.00;92461.19;5109143;28;20223;-74
2023/04/24 03:17:39;;;;;;;16.83;15.53;;;;;;;8.36;100.00;92466.38;5109808;28;20184;-75
2023/04/24 03:20:08;;;;;;;16.40;15.10;;;;;;;7.94;100.00;92475.34;5108648;28;20219;-75
2023/04/24 03:22:34;;;;;;;15.37;14.03;;;;;;;8.37;100.00;92491.31;5110085;28;20182;-74
2023/04/24 03:25:00;;;;;;;16.40;15.00;;;;;;;8.56;100.00;92482.63;5109510;28;20220;-71
2023/04/24 03:27:25;;;;;;;16.90;15.50;;;;;;;8.12;100.00;92468.78;5105734;28;20255;-69
2023/04/24 03:29:55;;;;;;;16.63;15.30;;;;;;;8.58;100.00;92484.94;5107689;28;20227;-70
2023/04/24 03:32:23;;;;;;;15.57;13.97;;;;;;;8.63;100.00;92488.31;5108586;28;20191;-68
2023/04/24 03:34:49;;;;;;;17.00;15.70;;;;;;;8.57;100.00;92467.78;5107148;28;20271;-71
2023/04/24 03:37:15;;;;;;;16.80;15.40;;;;;;;8.77;100.00;92478.06;5108837;28;20180;-73
2023/04/24 03:39:41;;;;;;;15.83;14.43;;;;;;;8.68;100.00;92466.69;5107270;28;20184;-71
2023/04/24 03:42:08;;;;;;;14.87;13.73;;;;;;;8.31;100.00;92409.94;5106749;28;20833;-71
2023/04/24 03:44:33;;;;;;;16.40;14.90;;;;;;;8.79;100.00;92476.78;5106662;28;20200;-72
2023/04/24 03:46:59;;;;;;;15.60;14.40;;;;;;;8.80;100.00;92480.13;5106887;28;20192;-71
2023/04/24 03:49:25;;;;;;;16.07;14.40;;;;;;;8.96;100.00;92479.00;5105546;28;20203;-72
2023/04/24 03:51:52;;;;;;;17.50;16.17;;;;;;;8.93;100.00;92443.09;5107810;28;20192;-70
2023/04/24 03:54:17;;;;;;;16.57;15.00;;;;;;;8.99;100.00;92457.63;5106846;28;20192;-71
2023/04/24 03:56:43;;;;;;;15.73;14.33;;;;;;;9.27;100.00;92464.69;5109903;28;20228;-71
2023/04/24 03:59:08;;;;;;;15.13;14.03;;;;;;;9.23;100.00;92459.25;5112607;28;20187;-70
2023/04/24 04:01:36;;;;;;;15.27;14.17;;;;;;;9.52;100.00;92487.91;5110508;28;20251;-69
2023/04/24 04:04:02;;;;;;;15.87;14.67;;;;;;;9.32;100.00;92452.38;5111385;28;20220;-71
2023/04/24 04:06:28;;;;;;;17.20;15.50;;;;;;;9.57;99.53;92478.22;5107424;28;20261;-72
2023/04/24 04:08:53;;;;;;;16.50;15.10;;;;;;;9.67;99.95;92482.56;5109919;28;20207;-72
2023/04/24 04:11:19;;;;;;;16.43;15.23;;;;;;;9.52;100.00;92459.25;5110073;28;20253;-71
2023/04/24 04:13:47;;;;;;;16.63;15.20;;;;;;;9.96;99.10;92490.34;5111173;28;20193;-67
2023/04/24 04:16:13;;;;;;;16.10;14.87;;;;;;;10.08;97.60;92485.56;5110392;28;20224;-71
2023/04/24 04:18:38;;;;;;;14.53;13.43;;;;;;;10.21;97.49;92497.94;5111464;28;20192;-69
2023/04/24 04:21:03;;;;;;;14.40;13.40;;;;;;;10.19;96.44;92482.56;5111502;28;20262;-70
2023/04/24 04:23:29;;;;;;;14.50;13.17;;;;;;;10.13;97.84;92486.28;5110196;28;20201;-67
2023/04/24 04:25:54;;;;;;;15.40;14.20;;;;;;;10.33;97.51;92496.47;5111114;28;20221;-71
2023/04/24 04:28:21;;;;;;;15.20;14.10;;;;;;;10.30;98.14;92483.22;5110240;28;20247;-71
2023/04/24 04:30:47;;;;;;;17.50;15.77;;;;;;;10.37;98.35;92486.25;5109470;28;20220;-74
2023/04/24 04:33:12;;;;;;;15.90;14.70;;;;;;;10.51;97.30;92474.84;5112052;28;20176;-74
2023/04/24 04:35:38;;;;;;;17.00;15.63;;;;;;;10.74;97.55;92494.91;5114644;28;21003;-74
2023/04/24 04:38:04;;;;;;;15.47;14.20;;;;;;;10.76;96.19;92479.72;5113062;28;20191;-74
2023/04/24 04:40:30;;;;;;;16.07;14.43;;;;;;;10.64;95.03;92505.50;5112130;28;20215;-74
2023/04/24 04:42:55;;;;;;;16.63;15.23;;;;;;;10.59;92.13;92496.94;5111223;28;20197;-74
2023/04/24 04:45:21;;;;;;;20.50;14.60;;;;;;;10.75;89.66;92511.34;5109916;28;20298;-74
2023/04/24 04:47:47;;;;;;;16.07;14.37;;;;;;;10.85;87.53;92519.03;5113575;28;20216;-74
2023/04/24 04:50:12;;;;;;;16.50;15.10;;;;;;;10.48;86.33;92521.59;5112357;28;20213;-74
2023/04/24 04:52:38;;;;;;;14.87;13.67;;;;;;;10.71;85.06;92539.84;5111246;28;20192;-74
2023/04/24 04:55:03;;;;;;;15.60;14.27;;;;;;;10.67;85.07;92530.25;5109069;28;20260;-74
2023/04/24 04:57:30;;;;;;;14.80;13.50;;;;;;;10.72;83.98;92536.16;5110767;28;20196;-74
2023/04/24 04:59:55;;;;;;;15.43;14.13;;;;;;;10.64;86.10;92515.16;5112115;28;20244;-74
2023/04/24 05:02:21;;;;;;;15.80;14.40;;;;;;;10.67;85.75;92515.38;5112252;28;20230;-74
2023/04/24 05:04:46;;;;;;;17.07;14.70;;;;;;;10.70;86.66;92514.03;5111410;28;20242;-74
2023/04/24 05:07:11;;;;;;;17.70;15.47;;;;;;;10.70;85.55;92514.03;5111284;28;20199;-74
2023/04/24 05:09:37;;;;;;;17.23;15.73;;;;;;;10.93;84.65;92528.84;5110708;28;20184;-74
2023/04/24 05:12:03;;;;;;;24.20;22.23;;;;;;;10.80;85.92;92525.09;5110905;28;20178;-74
2023/04/24 05:14:28;;;;;;;15.53;14.23;;;;;;;10.99;83.79;92525.91;5111480;28;20188;-74
2023/04/24 05:16:53;;;;;;;15.53;14.33;;;;;;;11.04;83.92;92519.81;5113166;28;20196;-74
2023/04/24 05:19:19;;;;;;;16.90;15.50;;;;;;;11.13;84.22;92524.13;5110948;28;20240;-75
2023/04/24 05:21:45;;;;;;;18.17;16.23;;;;;;;11.33;83.89;92529.06;5112287;28;20245;-74
2023/04/24 05:24:10;;;;;;;16.23;14.87;;;;;;;11.31;83.51;92525.94;5112914;28;20195;-74
2023/04/24 05:26:36;;;;;;;17.53;15.77;;;;;;;11.52;80.62;92530.88;5111183;28;20223;-74
2023/04/24 05:29:02;;;;;;;17.97;15.67;;;;;;;11.27;82.22;92508.50;5112104;28;20230;-74
2023/04/24 05:31:27;;;;;;;17.10;15.43;;;;;;;11.37;78.86;92508.34;5109391;28;20251;-74
2023/04/24 05:33:53;;;;;;;17.40;15.83;;;;;;;11.51;80.15;92537.16;5109835;28;20256;-74
2023/04/24 05:36:18;;;;;;;18.20;16.30;;;;;;;10.76;81.03;92526.72;5110949;28;20401;-74
2023/04/24 05:38:43;;;;;;;17.27;15.47;;;;;;;11.37;78.77;92524.03;5111092;28;20184;-74
2023/04/24 05:41:09;;;;;;;18.00;16.37;;;;;;;11.06;81.46;92518.50;5110595;28;20223;-74
2023/04/24 05:43:34;;;;;;;17.37;15.57;;;;;;;12.18;78.72;92518.25;5111308;28;20873;-74
2023/04/24 05:46:00;;;;;;;22.53;15.30;;;;;;;12.64;77.05;92534.63;5111422;28;20230;-74
2023/04/24 05:48:25;;;;;;;16.37;14.87;;;;;;;14.14;73.98;92539.13;5110367;28;20238;-74
2023/04/24 05:50:52;;;;;;;17.57;15.87;;;;;;;15.73;66.83;92534.88;5109961;28;20235;-74
2023/04/24 05:53:18;;;;;;;17.10;14.40;;;;;;;14.28;73.10;92531.94;5113167;28;20188;-74
2023/04/24 05:55:43;;;;;;;18.00;16.40;;;;;;;13.33;78.26;92529.00;5110075;28;20238;-74
2023/04/24 05:58:09;;;;;;;17.57;15.70;;;;;;;13.00;81.49;92530.25;5111155;28;20176;-74
2023/04/24 06:00:35;;;;;;;16.90;15.50;;;;;;;13.45;78.49;92526.63;5110408;28;20211;-74
2023/04/24 06:03:00;;;;;;;17.13;15.60;;;;;;;16.69;68.34;92529.06;5109970;28;20253;-74
2023/04/24 06:05:26;;;;;;;15.40;14.03;;;;;;;20.43;51.98;92541.84;5109892;28;20240;-74
2023/04/24 06:07:51;;;;;;;15.73;14.20;;;;;;;21.88;45.85;92541.47;5109676;28;20207;-74
2023/04/24 06:10:17;;;;;;;14.33;13.13;;;;;;;21.70;42.90;92527.00;5108018;28;20249;-74
2023/04/24 06:12:42;;;;;;;15.27;13.97;;;;;;;19.49;48.44;92540.72;5111573;28;20184;-74
2023/04/24 06:15:08;;;;;;;16.23;13.83;;;;;;;19.01;49.91;92549.47;5109484;28;20222;-74
2023/04/24 06:17:34;;;;;;;17.23;14.00;;;;;;;16.95;54.09;92530.47;5108905;28;20199;-74
2023/04/24 06:19:59;;;;;;;17.07;15.27;;;;;;;15.52;63.17;92543.69;5110506;28;20230;-74
2023/04/24 06:22:24;;;;;;;17.30;15.57;;;;;;;15.61;60.91;92539.22;5110277;28;20192;-74
2023/04/24 06:24:50;;;;;;;16.83;15.10;;;;;;;15.32;62.11;92528.50;5109584;28;20227;-74
2023/04/24 06:27:15;;;;;;;16.07;14.33;;;;;;;14.79;66.03;92541.06;5109122;28;20329;-74
2023/04/24 06:29:40;;;;;;;16.60;14.83;;;;;;;15.01;64.22;92530.47;5113121;28;20187;-75
2023/04/24 06:32:06;;;;;;;16.97;15.23;;;;;;;14.31;67.11;92531.34;5110265;28;20196;-74
2023/04/24 06:34:33;;;;;;;17.27;15.63;;;;;;;15.16;63.44;92527.41;5108891;28;20186;-73
2023/04/24 06:36:58;;;;;;;17.30;15.10;;;;;;;15.06;64.79;92532.94;5110364;28;20219;-71
2023/04/24 06:39:24;;;;;;;19.17;15.77;;;;;;;14.78;65.71;92518.50;5110001;28;20203;-70
2023/04/24 06:41:49;;;;;;;17.57;15.13;;;;;;;15.70;62.71;92534.72;5110626;28;20180;-69
2023/04/24 06:44:15;;;;;;;16.83;15.13;;;;;;;15.16;63.64;92511.63;5108958;28;20337;-73
2023/04/24 06:46:41;;;;;;;17.87;16.27;;;;;;;14.94;67.04;92541.44;5108504;28;20263;-72
2023/04/24 06:49:06;;;;;;;18.60;13.97;;;;;;;15.52;61.66;92547.09;5109428;28;20219;-71
2023/04/24 06:51:32;;;;;;;15.80;14.30;;;;;;;15.38;62.43;92535.19;5108413;28;20227;-72
2023/04/24 06:53:59;;;;;;;15.73;14.27;;;;;;;15.37;61.90;92554.66;5109591;28;20192;-73
2023/04/24 06:56:25;;;;;;;17.90;15.37;;;;;;;14.31;63.91;92533.19;5108845;28;20230;-73
2023/04/24 06:58:51;;;;;;;17.57;14.07;;;;;;;14.85;62.70;92558.28;5106757;28;20183;-71
2023/04/24 07:01:17;;;;;;;16.00;14.37;;;;;;;15.69;59.95;92556.84;5110191;28;20232;-72
2023/04/24 07:03:42;;;;;;;14.30;12.87;;;;;;;15.89;59.72;92535.94;5110501;28;20211;-73
2023/04/24 07:06:10;;;;;;;25.03;14.77;;;;;;;15.92;59.72;92534.56;5107402;28;20211;-71
2023/04/24 07:08:36;;;;;;;16.00;12.97;;;;;;;15.89;58.07;92535.94;5109634;28;20212;-72
2023/04/24 07:11:02;;;;;;;15.10;13.87;;;;;;;15.91;57.91;92530.34;5106231;28;20215;-72
2023/04/24 07:13:27;;;;;;;15.40;14.10;;;;;;;15.71;56.90;92525.72;5108897;28;20191;-72
2023/04/24 07:15:54;;;;;;;15.30;14.10;;;;;;;15.59;57.83;92528.22;5108397;28;20227;-72
2023/04/24 07:18:21;;;;;;;11.87;11.00;;;;;;;15.57;55.97;92527.75;5109160;28;20191;-72
2023/04/24 07:20:46;;;;;;;13.30;12.07;;;;;;;15.66;55.93;92531.94;5108007;28;20227;-72
2023/04/24 07:23:12;;;;;;;12.60;11.70;;;;;;;15.69;56.69;92531.31;5109585;28;20175;-72
2023/04/24 07:25:38;;;;;;;12.73;11.87;;;;;;;15.63;56.09;92537.81;5108840;28;20227;-72
2023/04/24 07:28:04;;;;;;;12.50;11.40;;;;;;;14.81;60.84;92531.81;5109068;28;20264;-72
2023/04/24 07:30:30;;;;;;;12.37;11.37;;;;;;;15.59;57.42;92536.91;5110502;27;20283;-72
2023/04/24 07:32:55;;;;;;;12.60;11.60;;;;;;;16.04;55.68;92539.94;5110995;28;20226;-72
2023/04/24 07:35:21;;;;;;;12.77;11.67;;;;;;;16.01;56.16;92519.50;5112931;28;20224;-72
2023/04/24 07:37:47;;;;;;;12.30;11.20;;;;;;;15.91;55.86;92517.97;5115124;28;20211;-72
2023/04/24 07:40:13;;;;;;;13.07;11.87;;;;;;;15.77;56.50;92517.38;5113070;28;20227;-72
2023/04/24 07:42:38;;;;;;;14.33;12.67;;;;;;;15.24;57.44;92516.09;5113528;28;21169;-72
2023/04/24 07:45:04;;;;;;;12.90;11.90;;;;;;;15.20;58.05;92517.81;5112254;28;20207;-71
2023/04/24 07:47:31;;;;;;;13.03;11.63;;;;;;;15.40;58.05;92506.72;5113147;28;20210;-72
2023/04/24 07:49:56;;;;;;;13.90;12.53;;;;;;;15.43;58.82;92506.88;5114858;28;20246;-72
2023/04/24 07:52:21;;;;;;;14.07;12.93;;;;;;;15.54;59.94;92502.06;5112407;28;20903;-72
2023/04/24 07:54:47;;;;;;;12.77;11.67;;;;;;;15.45;58.25;92496.81;5111322;28;20223;-72
2023/04/24 07:57:13;;;;;;;12.83;11.83;;;;;;;15.20;58.62;92507.28;5112184;28;20176;-70
2023/04/24 07:59:39;;;;;;;13.83;12.60;;;;;;;15.68;57.36;92513.19;5112088;28;20206;-75
2023/04/24 08:02:06;;;;;;;12.33;11.33;;;;;;;15.30;58.63;92497.25;5112743;28;20216;-73
2023/04/24 08:04:31;;;;;;;13.90;12.80;;;;;;;15.45;58.00;92493.41;5111911;28;20184;-73
2023/04/24 08:06:57;;;;;;;14.37;12.87;;;;;;;15.62;56.09;92511.81;5114233;28;20209;-73
2023/04/24 08:09:22;;;;;;;13.67;12.60;;;;;;;15.48;60.41;92508.56;5113020;28;20207;-73
2023/04/24 08:11:47;;;;;;;13.13;12.23;;;;;;;15.72;56.85;92509.63;5112705;28;20211;-73
2023/04/24 08:14:14;;;;;;;13.47;12.23;;;;;;;15.45;58.31;92493.41;5112050;28;20168;-73
2023/04/24 08:16:40;;;;;;;14.13;12.47;;;;;;;15.29;58.96;92500.97;5111277;28;20992;-73
2023/04/24 08:19:06;;;;;;;13.33;12.23;;;;;;;15.37;57.42;92504.66;5111743;28;20274;-73
2023/04/24 08:21:32;;;;;;;15.37;12.00;;;;;;;15.42;59.81;92505.34;5112895;28;20246;-73
2023/04/24 08:23:57;;;;;;;14.37;13.07;;;;;;;15.93;58.40;92499.22;5111880;28;20192;-73
2023/04/24 08:26:22;;;;;;;14.70;13.53;;;;;;;16.18;56.64;92494.97;5113545;28;20227;-72
2023/04/24 08:28:48;;;;;;;13.17;12.23;;;;;;;16.15;55.64;92488.47;5112023;28;20216;-73
2023/04/24 08:31:13;;;;;;;15.23;13.93;;;;;;;16.20;56.77;92498.84;5111434;28;20249;-71
2023/04/24 08:33:40;;;;;;;13.83;12.37;;;;;;;16.37;57.00;92498.00;5112319;28;20219;-73
2023/04/24 08:36:06;;;;;;;14.40;13.00;;;;;;;16.57;55.75;92502.59;5111361;28;20241;-72
2023/04/24 08:38:33;;;;;;;19.13;12.90;;;;;;;16.11;58.62;92499.97;5111288;28;20180;-73
2023/04/24 08:41:00;;;;;;;14.17;13.00;;;;;;;16.01;57.03;92488.69;5109755;28;20287;-69
2023/04/24 08:43:27;;;;;;;15.17;12.90;;;;;;;15.66;55.95;92489.81;5112423;28;20168;-69
2023/04/24 08:45:55;;;;;;;16.00;14.10;;;;;;;15.46;58.29;92474.69;5111507;28;20220;-70
2023/04/24 08:48:22;;;;;;;14.87;13.60;;;;;;;15.52;58.76;92485.81;5112094;28;20211;-69
2023/04/24 08:50:49;;;;;;;15.07;13.77;;;;;;;15.28;58.96;92488.13;5110554;28;20212;-74
2023/04/24 08:53:15;;;;;;;14.67;13.37;;;;;;;15.35;58.88;92475.25;5111882;28;20184;-74
2023/04/24 08:55:43;;;;;;;14.07;12.77;;;;;;;15.89;57.61;92477.25;5111001;28;20248;-74
2023/04/24 08:58:09;;;;;;;13.77;12.63;;;;;;;16.09;57.88;92450.25;5112292;28;20184;-74
2023/04/24 09:00:34;;;;;;;13.50;12.23;;;;;;;16.35;56.09;92464.06;5112497;28;20219;-74
2023/04/24 09:03:02;;;;;;;14.73;13.43;;;;;;;16.52;55.02;92471.94;5112578;28;20250;-74
2023/04/24 09:05:28;;;;;;;13.73;12.57;;;;;;;16.56;56.49;92461.53;5111426;28;20242;-74
2023/04/24 09:07:55;;;;;;;13.73;12.57;;;;;;;16.78;55.53;92467.28;5110687;28;20206;-74
2023/04/24 09:10:22;;;;;;;14.80;13.60;;;;;;;16.89;55.73;92460.56;5111722;28;20215;-74
2023/04/24 09:12:47;;;;;;;14.00;12.90;;;;;;;16.74;55.82;92453.22;5110473;28;20245;-74
2023/04/24 09:15:13;;;;;;;13.60;12.50;;;;;;;16.94;54.59;92459.59;5112796;28;20212;-74
2023/04/24 09:17:38;;;;;;;14.13;12.93;;;;;;;17.04;53.59;92454.69;5110335;28;20225;-74
2023/04/24 09:20:05;;;;;;;13.73;12.53;;;;;;;16.99;55.05;92446.22;5110737;28;20216;-74
2023/04/24 09:22:31;;;;;;;14.17;12.77;;;;;;;16.90;53.83;92459.44;5110230;28;20207;-74
2023/04/24 09:25:05;;;;;;;13.87;12.50;;;;;;;17.37;53.24;92450.25;5111926;28;20220;-74
2023/04/24 09:27:31;;;;;;;13.07;11.73;;;;;;;17.14;54.10;92446.41;5108047;28;20206;-74
2023/04/24 09:29:57;;;;;;;15.40;12.23;;;;;;;17.68;52.21;92443.81;5111666;28;20227;-74
2023/04/24 09:32:25;;;;;;;13.57;12.30;;;;;;;17.62;52.21;92447.75;5110339;28;20165;-74
2023/04/24 09:35:09;;;;;;;13.33;12.03;;;;;;;17.57;52.24;92435.53;5109670;28;20279;-74
2023/04/24 09:37:48;;;;;;;13.47;12.07;;;;;;;17.09;52.38;92430.78;5109639;28;20269;-75
2023/04/24 09:40:21;;;;;;;13.43;12.17;;;;;;;17.63;52.37;92429.72;5109078;28;20230;-74
2023/04/24 09:42:56;;;;;;;13.33;12.20;;;;;;;17.95;51.49;92430.00;5111670;28;20173;-70
2023/04/24 09:45:22;;;;;;;13.30;12.20;;;;;;;17.93;50.96;92432.97;5109529;28;20903;-74
2023/04/24 09:47:52;;;;;;;13.27;12.17;;;;;;;18.10;51.58;92416.94;5110851;28;20218;-73
2023/04/24 09:50:17;;;;;;;14.77;12.10;;;;;;;18.47;50.97;92431.00;5109730;28;20281;-75
2023/04/24 09:52:46;;;;;;;18.73;12.83;;;;;;;18.60;49.80;92435.94;5109632;28;20176;-76
2023/04/24 09:55:20;;;;;;;12.53;11.43;;;;;;;18.47;50.31;92423.06;5108808;28;20224;-75
2023/04/24 09:57:51;;;;;;;13.53;12.33;;;;;;;18.03;50.20;92411.44;5110277;28;20211;-75
2023/04/24 10:00:23;;;;;;;13.87;11.83;;;;;;;18.33;50.72;92422.59;5110299;28;20302;-76
2023/04/24 10:03:02;;;;;;;15.50;11.43;;;;;;;18.09;49.84;92425.97;5110159;28;20278;-76
2023/04/24 10:05:32;;;;;;;11.70;10.67;;;;;;;18.24;49.44;92416.66;5110446;28;20224;-76
2023/04/24 10:08:01;;;;;;;13.03;11.27;;;;;;;18.18;49.04;92415.31;5108453;28;20218;-75
2023/04/24 10:10:27;;;;;;;12.43;11.40;;;;;;;17.83;49.60;92406.22;5109804;28;20309;-76
2023/04/24 10:12:53;;;;;;;12.53;11.43;;;;;;;17.90;50.33;92406.47;5109307;28;20192;-76
2023/04/24 10:15:21;;;;;;;12.47;11.23;;;;;;;17.90;48.86;92406.47;5110367;28;20258;-76
2023/04/24 10:17:52;;;;;;;12.33;11.43;;;;;;;18.25;49.70;92402.31;5109006;28;20253;-73
2023/04/24 10:20:31;;;;;;;12.57;11.57;;;;;;;18.23;48.47;92392.06;5108625;28;20204;-76
2023/04/24 10:22:58;;;;;;;11.50;10.50;;;;;;;17.84;51.21;92384.03;5110816;28;20188;-75
2023/04/24 10:25:33;;;;;;;12.73;11.77;;;;;;;17.91;49.87;92365.75;5109799;28;20245;-75
2023/04/24 10:28:00;;;;;;;12.47;11.20;;;;;;;17.63;49.59;92368.25;5108457;28;20207;-75
2023/04/24 10:30:28;;;;;;;12.27;11.20;;;;;;;17.62;50.71;92379.88;5108596;28;20215;-75
2023/04/24 10:32:53;;;;;;;12.37;11.17;;;;;;;17.42;51.97;92370.13;5109893;28;20181;-76
2023/04/24 10:35:22;;;;;;;11.90;10.87;;;;;;;18.04;48.38;92377.88;5109345;28;20245;-75
2023/04/24 10:37:57;;;;;;;12.83;11.83;;;;;;;18.22;48.57;92382.63;5113152;28;20180;-75
2023/04/24 10:40:34;;;;;;;12.47;11.37;;;;;;;18.84;49.54;92376.97;5108253;28;20220;-76
2023/04/24 10:43:05;;;;;;;12.00;11.00;;;;;;;19.01;46.91;92368.75;5108118;28;20256;-76
2023/04/24 10:45:31;;;;;;;11.03;10.13;;;;;;;19.22;45.85;92366.72;5107678;28;20249;-75
2023/04/24 10:48:13;;;;;;;14.63;10.00;;;;;;;19.72;44.95;92358.97;5110400;28;20241;-76
2023/04/24 10:50:44;;;;;;;10.90;10.10;;;;;;;19.86;44.32;92351.38;5107855;28;20228;-75
2023/04/24 10:53:17;;;;;;;11.13;10.27;;;;;;;19.92;43.51;92362.53;5109076;28;20217;-75
2023/04/24 10:55:51;;;;;;;11.17;10.27;;;;;;;20.08;41.67;92358.75;5108318;28;20214;-75
2023/04/24 10:58:22;;;;;;;11.07;10.37;;;;;;;20.10;44.15;92363.72;5109812;28;20181;-73
2023/04/24 11:00:58;;;;;;;10.77;10.07;;;;;;;19.70;43.09;92353.28;5109595;28;20241;-76
2023/04/24 11:03:32;;;;;;;11.10;10.30;;;;;;;19.59;43.42;92356.75;5108780;28;20222;-76
2023/04/24 11:06:08;;;;;;;10.80;10.10;;;;;;;19.59;44.06;92349.59;5108839;28;20247;-77
2023/04/24 11:08:44;;;;;;;10.63;9.80;;;;;;;19.25;42.32;92358.09;5110554;28;20291;-70
2023/04/24 11:11:15;;;;;;;10.47;9.83;;;;;;;18.48;43.76;92354.00;5107750;28;20243;-71
2023/04/24 11:13:55;;;;;;;12.07;11.17;;;;;;;18.75;43.47;92358.59;5110262;28;20204;-77
2023/04/24 11:16:35;;;;;;;11.80;10.83;;;;;;;18.54;43.47;92351.88;5109732;28;20233;-76